sensor_id;sensor_type;location;lat;lon;timestamp;temperature;humidity
43808;DHT22;29438;50.664;10.098;2022-09-09T00:01:27;12.60;87.60
43808;DHT22;29438;50.664;10.098;2022-09-09T00:04:05;12.50;87.90
43808;DHT22;29438;50.664;10.098;2022-09-09T00:06:55;12.40;88.40
43808;DHT22;29438;50.664;10.098;2022-09-09T00:09:25;12.30;88.70
43808;DHT22;29438;50.664;10.098;2022-09-09T00:11:58;12.20;89.10
43808;DHT22;29438;50.664;10.098;2022-09-09T00:22:42;12.30;89.60
43808;DHT22;29438;50.664;10.098;2022-09-09T00:25:14;12.50;89.60
43808;DHT22;29438;50.664;10.098;2022-09-09T00:27:46;12.80;88.90
43808;DHT22;29438;50.664;10.098;2022-09-09T00:30:22;13.00;88.30
43808;DHT22;29438;50.664;10.098;2022-09-09T00:33:01;13.00;88.10
43808;DHT22;29438;50.664;10.098;2022-09-09T00:35:40;13.20;87.50
43808;DHT22;29438;50.664;10.098;2022-09-09T00:38:17;13.20;87.30
43808;DHT22;29438;50.664;10.098;2022-09-09T00:40:52;13.20;86.90
43808;DHT22;29438;50.664;10.098;2022-09-09T00:43:32;13.30;86.70
43808;DHT22;29438;50.664;10.098;2022-09-09T00:46:32;13.30;86.70
43808;DHT22;29438;50.664;10.098;2022-09-09T00:57:33;13.20;86.40
43808;DHT22;29438;50.664;10.098;2022-09-09T01:00:23;13.30;86.50
43808;DHT22;29438;50.664;10.098;2022-09-09T01:06:00;13.20;86.50
43808;DHT22;29438;50.664;10.098;2022-09-09T01:16:58;13.10;87.30
43808;DHT22;29438;50.664;10.098;2022-09-09T01:22:20;13.00;87.40
43808;DHT22;29438;50.664;10.098;2022-09-09T01:27:53;13.10;87.30
43808;DHT22;29438;50.664;10.098;2022-09-09T01:30:21;13.00;87.70
43808;DHT22;29438;50.664;10.098;2022-09-09T01:32:50;13.00;88.00
43808;DHT22;29438;50.664;10.098;2022-09-09T01:37:56;12.80;88.10
43808;DHT22;29438;50.664;10.098;2022-09-09T01:40:23;12.70;88.10
43808;DHT22;29438;50.664;10.098;2022-09-09T01:42:49;12.60;88.40
43808;DHT22;29438;50.664;10.098;2022-09-09T01:45:14;12.50;88.70
43808;DHT22;29438;50.664;10.098;2022-09-09T01:47:41;12.40;88.80
43808;DHT22;29438;50.664;10.098;2022-09-09T01:50:08;12.40;89.00
43808;DHT22;29438;50.664;10.098;2022-09-09T01:52:37;12.40;89.20
43808;DHT22;29438;50.664;10.098;2022-09-09T01:55:03;12.50;89.50
43808;DHT22;29438;50.664;10.098;2022-09-09T02:00:41;12.60;89.50
43808;DHT22;29438;50.664;10.098;2022-09-09T02:03:20;12.60;89.40
43808;DHT22;29438;50.664;10.098;2022-09-09T02:08:42;12.80;89.40
43808;DHT22;29438;50.664;10.098;2022-09-09T02:11:14;12.80;89.30
43808;DHT22;29438;50.664;10.098;2022-09-09T02:13:40;12.80;89.30
43808;DHT22;29438;50.664;10.098;2022-09-09T02:21:13;13.10;89.90
43808;DHT22;29438;50.664;10.098;2022-09-09T02:23:41;13.20;89.60
43808;DHT22;29438;50.664;10.098;2022-09-09T02:26:10;13.20;89.50
43808;DHT22;29438;50.664;10.098;2022-09-09T02:28:37;13.30;89.70
43808;DHT22;29438;50.664;10.098;2022-09-09T02:31:04;13.30;89.80
43808;DHT22;29438;50.664;10.098;2022-09-09T02:33:35;13.40;90.00
43808;DHT22;29438;50.664;10.098;2022-09-09T02:36:03;13.60;89.70
43808;DHT22;29438;50.664;10.098;2022-09-09T02:38:36;13.70;89.40
43808;DHT22;29438;50.664;10.098;2022-09-09T02:41:02;13.70;89.20
43808;DHT22;29438;50.664;10.098;2022-09-09T02:43:35;13.60;89.00
43808;DHT22;29438;50.664;10.098;2022-09-09T02:51:32;13.20;89.40
43808;DHT22;29438;50.664;10.098;2022-09-09T02:56:41;13.10;90.00
43808;DHT22;29438;50.664;10.098;2022-09-09T02:59:09;13.00;90.10
43808;DHT22;29438;50.664;10.098;2022-09-09T03:01:35;12.80;90.30
43808;DHT22;29438;50.664;10.098;2022-09-09T03:04:02;12.70;90.40
43808;DHT22;29438;50.664;10.098;2022-09-09T03:06:30;12.70;90.70
43808;DHT22;29438;50.664;10.098;2022-09-09T03:08:56;12.50;90.80
43808;DHT22;29438;50.664;10.098;2022-09-09T03:11:26;12.40;91.10
43808;DHT22;29438;50.664;10.098;2022-09-09T03:13:52;12.40;91.30
43808;DHT22;29438;50.664;10.098;2022-09-09T03:16:18;12.40;91.60
43808;DHT22;29438;50.664;10.098;2022-09-09T03:18:44;12.40;91.60
43808;DHT22;29438;50.664;10.098;2022-09-09T03:21:11;12.40;91.60
43808;DHT22;29438;50.664;10.098;2022-09-09T03:23:36;12.40;91.70
43808;DHT22;29438;50.664;10.098;2022-09-09T03:26:02;12.50;91.70
43808;DHT22;29438;50.664;10.098;2022-09-09T03:28:27;12.50;91.70
43808;DHT22;29438;50.664;10.098;2022-09-09T03:31:04;12.50;91.70
43808;DHT22;29438;50.664;10.098;2022-09-09T03:33:31;12.40;91.60
43808;DHT22;29438;50.664;10.098;2022-09-09T03:35:57;12.40;91.70
43808;DHT22;29438;50.664;10.098;2022-09-09T03:38:24;12.50;91.80
43808;DHT22;29438;50.664;10.098;2022-09-09T03:40:54;12.50;91.80
43808;DHT22;29438;50.664;10.098;2022-09-09T03:43:26;12.60;91.90
43808;DHT22;29438;50.664;10.098;2022-09-09T03:45:53;12.50;91.90
43808;DHT22;29438;50.664;10.098;2022-09-09T03:48:19;12.50;91.90
43808;DHT22;29438;50.664;10.098;2022-09-09T03:50:53;12.50;92.00
43808;DHT22;29438;50.664;10.098;2022-09-09T03:53:20;12.60;92.10
43808;DHT22;29438;50.664;10.098;2022-09-09T03:55:48;12.50;92.00
43808;DHT22;29438;50.664;10.098;2022-09-09T03:58:15;12.50;92.00
43808;DHT22;29438;50.664;10.098;2022-09-09T04:00:41;12.50;92.00
43808;DHT22;29438;50.664;10.098;2022-09-09T04:03:09;12.40;92.00
43808;DHT22;29438;50.664;10.098;2022-09-09T04:05:35;12.50;92.10
43808;DHT22;29438;50.664;10.098;2022-09-09T04:08:05;12.50;92.00
43808;DHT22;29438;50.664;10.098;2022-09-09T04:10:31;12.50;92.00
43808;DHT22;29438;50.664;10.098;2022-09-09T04:12:56;12.40;91.90
43808;DHT22;29438;50.664;10.098;2022-09-09T04:15:22;12.40;91.90
43808;DHT22;29438;50.664;10.098;2022-09-09T04:17:47;12.40;91.90
43808;DHT22;29438;50.664;10.098;2022-09-09T04:20:13;12.40;92.00
43808;DHT22;29438;50.664;10.098;2022-09-09T04:22:38;12.30;91.90
43808;DHT22;29438;50.664;10.098;2022-09-09T04:25:05;12.30;91.90
43808;DHT22;29438;50.664;10.098;2022-09-09T04:27:31;12.30;91.90
43808;DHT22;29438;50.664;10.098;2022-09-09T04:29:57;12.20;92.00
43808;DHT22;29438;50.664;10.098;2022-09-09T04:32:23;12.20;92.10
43808;DHT22;29438;50.664;10.098;2022-09-09T04:34:48;12.20;92.30
43808;DHT22;29438;50.664;10.098;2022-09-09T04:37:14;12.20;92.40
43808;DHT22;29438;50.664;10.098;2022-09-09T04:39:40;12.20;92.50
43808;DHT22;29438;50.664;10.098;2022-09-09T04:42:05;12.20;92.50
43808;DHT22;29438;50.664;10.098;2022-09-09T04:44:31;12.30;92.50
43808;DHT22;29438;50.664;10.098;2022-09-09T04:46:56;12.20;92.50
43808;DHT22;29438;50.664;10.098;2022-09-09T04:49:22;12.20;92.50
43808;DHT22;29438;50.664;10.098;2022-09-09T04:51:49;12.20;92.50
43808;DHT22;29438;50.664;10.098;2022-09-09T04:54:14;12.20;92.70
43808;DHT22;29438;50.664;10.098;2022-09-09T04:56:40;12.20;92.80
43808;DHT22;29438;50.664;10.098;2022-09-09T04:59:07;12.30;92.80
43808;DHT22;29438;50.664;10.098;2022-09-09T05:01:33;12.30;92.80
43808;DHT22;29438;50.664;10.098;2022-09-09T05:03:59;12.50;92.80
43808;DHT22;29438;50.664;10.098;2022-09-09T05:06:25;12.60;92.70
43808;DHT22;29438;50.664;10.098;2022-09-09T05:08:50;12.60;92.50
43808;DHT22;29438;50.664;10.098;2022-09-09T05:13:51;12.50;92.00
43808;DHT22;29438;50.664;10.098;2022-09-09T05:16:18;12.30;91.60
43808;DHT22;29438;50.664;10.098;2022-09-09T05:18:44;12.20;91.50
43808;DHT22;29438;50.664;10.098;2022-09-09T05:21:10;12.20;91.50
43808;DHT22;29438;50.664;10.098;2022-09-09T05:23:36;12.20;91.50
43808;DHT22;29438;50.664;10.098;2022-09-09T05:26:03;12.30;91.50
43808;DHT22;29438;50.664;10.098;2022-09-09T05:28:29;12.40;91.40
43808;DHT22;29438;50.664;10.098;2022-09-09T05:31:00;12.50;91.40
43808;DHT22;29438;50.664;10.098;2022-09-09T05:33:26;12.70;91.30
43808;DHT22;29438;50.664;10.098;2022-09-09T05:36:03;12.80;90.80
43808;DHT22;29438;50.664;10.098;2022-09-09T05:38:30;12.80;90.40
43808;DHT22;29438;50.664;10.098;2022-09-09T05:40:55;12.80;90.30
43808;DHT22;29438;50.664;10.098;2022-09-09T05:43:23;12.80;89.90
43808;DHT22;29438;50.664;10.098;2022-09-09T05:45:59;12.90;89.90
43808;DHT22;29438;50.664;10.098;2022-09-09T05:48:28;13.10;89.80
43808;DHT22;29438;50.664;10.098;2022-09-09T05:50:54;13.20;89.70
43808;DHT22;29438;50.664;10.098;2022-09-09T05:53:19;13.40;89.70
43808;DHT22;29438;50.664;10.098;2022-09-09T05:55:45;13.50;89.60
43808;DHT22;29438;50.664;10.098;2022-09-09T05:58:11;13.70;89.60
43808;DHT22;29438;50.664;10.098;2022-09-09T06:00:37;13.80;89.70
43808;DHT22;29438;50.664;10.098;2022-09-09T06:03:03;14.00;89.50
43808;DHT22;29438;50.664;10.098;2022-09-09T06:05:29;14.10;89.00
43808;DHT22;29438;50.664;10.098;2022-09-09T06:07:54;14.20;88.50
43808;DHT22;29438;50.664;10.098;2022-09-09T06:10:21;14.40;88.10
43808;DHT22;29438;50.664;10.098;2022-09-09T06:12:47;14.50;87.50
43808;DHT22;29438;50.664;10.098;2022-09-09T06:15:12;14.60;87.50
43808;DHT22;29438;50.664;10.098;2022-09-09T06:17:38;14.80;87.40
43808;DHT22;29438;50.664;10.098;2022-09-09T06:20:04;14.90;86.90
43808;DHT22;29438;50.664;10.098;2022-09-09T06:22:30;15.20;85.80
43808;DHT22;29438;50.664;10.098;2022-09-09T06:24:56;15.40;84.50
43808;DHT22;29438;50.664;10.098;2022-09-09T06:27:21;15.70;83.70
43808;DHT22;29438;50.664;10.098;2022-09-09T06:29:47;15.90;83.10
43808;DHT22;29438;50.664;10.098;2022-09-09T06:32:13;16.20;82.50
43808;DHT22;29438;50.664;10.098;2022-09-09T06:34:39;16.50;81.90
43808;DHT22;29438;50.664;10.098;2022-09-09T06:37:05;16.60;81.40
43808;DHT22;29438;50.664;10.098;2022-09-09T06:39:32;16.90;79.60
43808;DHT22;29438;50.664;10.098;2022-09-09T06:41:57;16.90;79.30
43808;DHT22;29438;50.664;10.098;2022-09-09T06:44:24;17.20;78.90
43808;DHT22;29438;50.664;10.098;2022-09-09T06:46:52;17.20;78.40
43808;DHT22;29438;50.664;10.098;2022-09-09T06:49:18;17.30;78.00
43808;DHT22;29438;50.664;10.098;2022-09-09T06:51:43;17.20;77.70
43808;DHT22;29438;50.664;10.098;2022-09-09T06:54:09;17.00;78.70
43808;DHT22;29438;50.664;10.098;2022-09-09T06:56:37;16.90;78.80
43808;DHT22;29438;50.664;10.098;2022-09-09T06:59:04;17.00;78.60
43808;DHT22;29438;50.664;10.098;2022-09-09T07:01:33;17.10;79.40
43808;DHT22;29438;50.664;10.098;2022-09-09T07:04:00;17.20;78.30
43808;DHT22;29438;50.664;10.098;2022-09-09T07:06:28;17.20;77.70
43808;DHT22;29438;50.664;10.098;2022-09-09T07:08:55;17.20;78.30
43808;DHT22;29438;50.664;10.098;2022-09-09T07:11:25;17.20;77.90
43808;DHT22;29438;50.664;10.098;2022-09-09T07:13:53;17.20;78.20
43808;DHT22;29438;50.664;10.098;2022-09-09T07:16:21;17.00;78.00
43808;DHT22;29438;50.664;10.098;2022-09-09T07:18:47;16.90;78.60
43808;DHT22;29438;50.664;10.098;2022-09-09T07:21:14;16.80;79.10
43808;DHT22;29438;50.664;10.098;2022-09-09T07:23:40;17.00;79.00
43808;DHT22;29438;50.664;10.098;2022-09-09T07:26:11;17.30;78.90
43808;DHT22;29438;50.664;10.098;2022-09-09T07:28:37;17.30;76.70
43808;DHT22;29438;50.664;10.098;2022-09-09T07:31:04;17.50;76.80
43808;DHT22;29438;50.664;10.098;2022-09-09T07:33:32;17.50;77.20
43808;DHT22;29438;50.664;10.098;2022-09-09T07:36:34;17.60;77.40
43808;DHT22;29438;50.664;10.098;2022-09-09T07:39:04;17.90;75.70
43808;DHT22;29438;50.664;10.098;2022-09-09T07:41:34;18.20;75.50
43808;DHT22;29438;50.664;10.098;2022-09-09T07:44:09;18.50;74.30
43808;DHT22;29438;50.664;10.098;2022-09-09T07:46:35;18.70;73.30
43808;DHT22;29438;50.664;10.098;2022-09-09T07:49:00;18.80;73.10
43808;DHT22;29438;50.664;10.098;2022-09-09T07:51:38;19.10;70.60
43808;DHT22;29438;50.664;10.098;2022-09-09T07:54:06;19.40;70.90
43808;DHT22;29438;50.664;10.098;2022-09-09T07:56:34;19.50;69.70
43808;DHT22;29438;50.664;10.098;2022-09-09T07:59:00;19.20;70.20
43808;DHT22;29438;50.664;10.098;2022-09-09T08:01:29;18.90;70.90
43808;DHT22;29438;50.664;10.098;2022-09-09T08:03:57;18.60;71.20
43808;DHT22;29438;50.664;10.098;2022-09-09T08:06:32;18.20;72.90
43808;DHT22;29438;50.664;10.098;2022-09-09T08:08:59;18.10;74.00
43808;DHT22;29438;50.664;10.098;2022-09-09T08:11:26;18.00;74.00
43808;DHT22;29438;50.664;10.098;2022-09-09T08:13:52;17.90;74.60
43808;DHT22;29438;50.664;10.098;2022-09-09T08:16:23;17.80;74.00
43808;DHT22;29438;50.664;10.098;2022-09-09T08:18:50;17.80;74.30
43808;DHT22;29438;50.664;10.098;2022-09-09T08:21:18;17.70;74.20
43808;DHT22;29438;50.664;10.098;2022-09-09T08:23:45;17.90;73.80
43808;DHT22;29438;50.664;10.098;2022-09-09T08:26:13;17.70;74.40
43808;DHT22;29438;50.664;10.098;2022-09-09T08:28:40;17.40;74.80
43808;DHT22;29438;50.664;10.098;2022-09-09T08:31:11;17.40;74.20
43808;DHT22;29438;50.664;10.098;2022-09-09T08:33:37;17.50;74.90
43808;DHT22;29438;50.664;10.098;2022-09-09T08:36:05;17.90;74.00
43808;DHT22;29438;50.664;10.098;2022-09-09T08:38:31;18.50;72.00
43808;DHT22;29438;50.664;10.098;2022-09-09T08:46:51;19.30;68.40
43808;DHT22;29438;50.664;10.098;2022-09-09T08:49:57;19.50;69.20
43808;DHT22;29438;50.664;10.098;2022-09-09T08:52:31;20.00;67.00
43808;DHT22;29438;50.664;10.098;2022-09-09T08:55:24;20.20;65.80
43808;DHT22;29438;50.664;10.098;2022-09-09T08:57:53;20.40;67.30
43808;DHT22;29438;50.664;10.098;2022-09-09T09:00:20;21.40;63.90
43808;DHT22;29438;50.664;10.098;2022-09-09T09:02:59;22.30;60.30
43808;DHT22;29438;50.664;10.098;2022-09-09T09:05:59;22.70;57.60
43808;DHT22;29438;50.664;10.098;2022-09-09T09:08:34;23.70;55.20
43808;DHT22;29438;50.664;10.098;2022-09-09T09:11:04;23.20;54.70
43808;DHT22;29438;50.664;10.098;2022-09-09T09:16:29;23.00;55.80
43808;DHT22;29438;50.664;10.098;2022-09-09T09:18:57;23.10;55.10
43808;DHT22;29438;50.664;10.098;2022-09-09T09:21:36;23.50;54.80
43808;DHT22;29438;50.664;10.098;2022-09-09T09:24:09;23.20;55.20
43808;DHT22;29438;50.664;10.098;2022-09-09T09:26:43;23.40;54.30
43808;DHT22;29438;50.664;10.098;2022-09-09T09:29:14;23.50;55.00
43808;DHT22;29438;50.664;10.098;2022-09-09T09:31:48;23.50;53.90
43808;DHT22;29438;50.664;10.098;2022-09-09T09:34:16;22.50;56.50
43808;DHT22;29438;50.664;10.098;2022-09-09T09:36:45;22.30;58.00
43808;DHT22;29438;50.664;10.098;2022-09-09T09:39:26;21.90;56.70
43808;DHT22;29438;50.664;10.098;2022-09-09T09:41:53;22.80;57.60
43808;DHT22;29438;50.664;10.098;2022-09-09T09:44:24;22.80;56.30
43808;DHT22;29438;50.664;10.098;2022-09-09T09:46:50;22.40;54.90
43808;DHT22;29438;50.664;10.098;2022-09-09T09:49:16;22.20;56.20
43808;DHT22;29438;50.664;10.098;2022-09-09T09:51:42;21.70;56.80
43808;DHT22;29438;50.664;10.098;2022-09-09T09:56:40;20.10;62.30
43808;DHT22;29438;50.664;10.098;2022-09-09T09:59:23;19.90;63.10
43808;DHT22;29438;50.664;10.098;2022-09-09T10:01:49;20.20;62.60
43808;DHT22;29438;50.664;10.098;2022-09-09T10:04:20;20.20;60.80
43808;DHT22;29438;50.664;10.098;2022-09-09T10:06:48;20.30;62.20
43808;DHT22;29438;50.664;10.098;2022-09-09T10:09:28;20.60;61.20
43808;DHT22;29438;50.664;10.098;2022-09-09T10:14:54;22.70;55.90
43808;DHT22;29438;50.664;10.098;2022-09-09T10:18:03;23.60;52.40
43808;DHT22;29438;50.664;10.098;2022-09-09T10:29:42;21.90;55.00
43808;DHT22;29438;50.664;10.098;2022-09-09T10:35:08;20.20;62.10
43808;DHT22;29438;50.664;10.098;2022-09-09T10:40:34;20.00;65.50
43808;DHT22;29438;50.664;10.098;2022-09-09T10:43:37;21.20;62.80
43808;DHT22;29438;50.664;10.098;2022-09-09T10:54:58;22.90;53.30
43808;DHT22;29438;50.664;10.098;2022-09-09T10:57:32;22.90;52.20
43808;DHT22;29438;50.664;10.098;2022-09-09T11:00:04;22.70;52.90
43808;DHT22;29438;50.664;10.098;2022-09-09T11:02:32;22.90;52.40
43808;DHT22;29438;50.664;10.098;2022-09-09T11:05:14;23.20;52.80
43808;DHT22;29438;50.664;10.098;2022-09-09T11:07:50;23.10;52.70
43808;DHT22;29438;50.664;10.098;2022-09-09T11:10:26;22.10;51.70
43808;DHT22;29438;50.664;10.098;2022-09-09T11:12:59;21.90;53.70
43808;DHT22;29438;50.664;10.098;2022-09-09T11:15:40;21.70;53.70
43808;DHT22;29438;50.664;10.098;2022-09-09T11:18:13;20.70;55.70
43808;DHT22;29438;50.664;10.098;2022-09-09T11:20:39;20.20;58.60
43808;DHT22;29438;50.664;10.098;2022-09-09T11:23:11;19.90;57.40
43808;DHT22;29438;50.664;10.098;2022-09-09T11:25:49;20.10;58.30
43808;DHT22;29438;50.664;10.098;2022-09-09T11:34:03;21.90;55.00
43808;DHT22;29438;50.664;10.098;2022-09-09T11:44:39;20.80;54.10
43808;DHT22;29438;50.664;10.098;2022-09-09T11:47:21;20.70;56.30
43808;DHT22;29438;50.664;10.098;2022-09-09T11:49:49;20.70;57.70
43808;DHT22;29438;50.664;10.098;2022-09-09T11:52:23;20.80;55.80
43808;DHT22;29438;50.664;10.098;2022-09-09T11:54:51;20.90;55.00
43808;DHT22;29438;50.664;10.098;2022-09-09T11:57:31;21.10;55.80
43808;DHT22;29438;50.664;10.098;2022-09-09T11:59:57;21.20;55.10
43808;DHT22;29438;50.664;10.098;2022-09-09T12:02:26;21.20;54.60
43808;DHT22;29438;50.664;10.098;2022-09-09T12:05:05;20.80;54.30
43808;DHT22;29438;50.664;10.098;2022-09-09T12:07:50;21.00;54.20
43808;DHT22;29438;50.664;10.098;2022-09-09T12:10:26;21.20;56.20
43808;DHT22;29438;50.664;10.098;2022-09-09T12:12:52;22.00;52.90
43808;DHT22;29438;50.664;10.098;2022-09-09T12:15:19;21.60;54.50
43808;DHT22;29438;50.664;10.098;2022-09-09T12:17:51;21.30;55.80
43808;DHT22;29438;50.664;10.098;2022-09-09T12:28:58;23.00;50.60
43808;DHT22;29438;50.664;10.098;2022-09-09T12:31:34;22.70;52.10
43808;DHT22;29438;50.664;10.098;2022-09-09T12:34:11;22.20;52.20
43808;DHT22;29438;50.664;10.098;2022-09-09T12:36:38;22.40;50.80
43808;DHT22;29438;50.664;10.098;2022-09-09T12:39:22;22.60;50.80
43808;DHT22;29438;50.664;10.098;2022-09-09T12:41:54;22.70;48.60
43808;DHT22;29438;50.664;10.098;2022-09-09T12:44:22;22.70;49.50
43808;DHT22;29438;50.664;10.098;2022-09-09T12:46:48;22.50;48.60
43808;DHT22;29438;50.664;10.098;2022-09-09T12:49:32;22.50;45.80
43808;DHT22;29438;50.664;10.098;2022-09-09T12:52:13;22.40;49.50
43808;DHT22;29438;50.664;10.098;2022-09-09T12:54:44;22.70;48.30
43808;DHT22;29438;50.664;10.098;2022-09-09T12:57:12;22.20;49.30
43808;DHT22;29438;50.664;10.098;2022-09-09T12:59:41;22.00;51.00
43808;DHT22;29438;50.664;10.098;2022-09-09T13:02:23;22.80;51.00
43808;DHT22;29438;50.664;10.098;2022-09-09T13:04:50;23.20;48.30
43808;DHT22;29438;50.664;10.098;2022-09-09T13:07:17;23.20;47.90
43808;DHT22;29438;50.664;10.098;2022-09-09T13:09:44;22.70;49.60
43808;DHT22;29438;50.664;10.098;2022-09-09T13:12:20;21.70;51.20
43808;DHT22;29438;50.664;10.098;2022-09-09T13:14:50;21.60;53.10
43808;DHT22;29438;50.664;10.098;2022-09-09T13:17:22;21.20;53.20
43808;DHT22;29438;50.664;10.098;2022-09-09T13:19:49;21.10;54.70
43808;DHT22;29438;50.664;10.098;2022-09-09T13:25:13;21.40;52.50
43808;DHT22;29438;50.664;10.098;2022-09-09T13:27:58;20.90;53.80
43808;DHT22;29438;50.664;10.098;2022-09-09T13:35:48;21.70;51.30
43808;DHT22;29438;50.664;10.098;2022-09-09T13:38:16;21.50;50.80
43808;DHT22;29438;50.664;10.098;2022-09-09T13:40:55;21.50;50.40
43808;DHT22;29438;50.664;10.098;2022-09-09T13:43:23;21.90;51.50
43808;DHT22;29438;50.664;10.098;2022-09-09T13:45:59;22.00;53.20
43808;DHT22;29438;50.664;10.098;2022-09-09T13:48:25;21.70;55.40
43808;DHT22;29438;50.664;10.098;2022-09-09T13:51:02;21.40;53.70
43808;DHT22;29438;50.664;10.098;2022-09-09T13:53:29;20.70;55.70
43808;DHT22;29438;50.664;10.098;2022-09-09T13:55:55;20.50;57.10
43808;DHT22;29438;50.664;10.098;2022-09-09T13:58:22;20.10;58.90
43808;DHT22;29438;50.664;10.098;2022-09-09T14:00:49;20.10;58.20
43808;DHT22;29438;50.664;10.098;2022-09-09T14:03:15;20.10;57.30
43808;DHT22;29438;50.664;10.098;2022-09-09T14:05:41;19.80;57.70
43808;DHT22;29438;50.664;10.098;2022-09-09T14:08:16;19.90;57.20
43808;DHT22;29438;50.664;10.098;2022-09-09T14:10:45;19.80;63.90
43808;DHT22;29438;50.664;10.098;2022-09-09T14:13:11;19.60;66.20
43808;DHT22;29438;50.664;10.098;2022-09-09T14:15:37;19.30;71.40
43808;DHT22;29438;50.664;10.098;2022-09-09T14:18:03;18.80;73.10
43808;DHT22;29438;50.664;10.098;2022-09-09T14:20:28;18.70;71.80
43808;DHT22;29438;50.664;10.098;2022-09-09T14:22:54;18.70;73.80
43808;DHT22;29438;50.664;10.098;2022-09-09T14:25:19;18.40;75.70
43808;DHT22;29438;50.664;10.098;2022-09-09T14:27:45;18.10;74.70
43808;DHT22;29438;50.664;10.098;2022-09-09T14:30:11;18.10;74.90
43808;DHT22;29438;50.664;10.098;2022-09-09T14:32:37;18.20;73.80
43808;DHT22;29438;50.664;10.098;2022-09-09T14:35:03;18.20;74.10
43808;DHT22;29438;50.664;10.098;2022-09-09T14:37:29;18.20;73.50
43808;DHT22;29438;50.664;10.098;2022-09-09T14:39:56;18.20;74.10
43808;DHT22;29438;50.664;10.098;2022-09-09T14:42:22;18.20;74.10
43808;DHT22;29438;50.664;10.098;2022-09-09T14:44:47;18.20;73.90
43808;DHT22;29438;50.664;10.098;2022-09-09T14:47:13;18.30;70.60
43808;DHT22;29438;50.664;10.098;2022-09-09T14:49:38;18.30;71.00
43808;DHT22;29438;50.664;10.098;2022-09-09T14:52:04;18.60;71.00
43808;DHT22;29438;50.664;10.098;2022-09-09T14:54:31;18.70;70.80
43808;DHT22;29438;50.664;10.098;2022-09-09T14:56:57;18.70;70.40
43808;DHT22;29438;50.664;10.098;2022-09-09T14:59:23;18.80;68.50
43808;DHT22;29438;50.664;10.098;2022-09-09T15:01:48;19.00;68.80
43808;DHT22;29438;50.664;10.098;2022-09-09T15:04:14;19.20;68.40
43808;DHT22;29438;50.664;10.098;2022-09-09T15:06:43;19.20;64.80
43808;DHT22;29438;50.664;10.098;2022-09-09T15:09:12;19.30;64.60
43808;DHT22;29438;50.664;10.098;2022-09-09T15:11:38;19.60;64.30
43808;DHT22;29438;50.664;10.098;2022-09-09T15:14:04;19.80;65.20
43808;DHT22;29438;50.664;10.098;2022-09-09T15:16:31;20.00;64.00
43808;DHT22;29438;50.664;10.098;2022-09-09T15:18:59;20.10;62.40
43808;DHT22;29438;50.664;10.098;2022-09-09T15:21:27;20.10;62.20
43808;DHT22;29438;50.664;10.098;2022-09-09T15:23:53;20.00;61.70
43808;DHT22;29438;50.664;10.098;2022-09-09T15:26:19;19.70;59.90
43808;DHT22;29438;50.664;10.098;2022-09-09T15:28:46;19.50;62.50
43808;DHT22;29438;50.664;10.098;2022-09-09T15:31:13;19.30;63.90
43808;DHT22;29438;50.664;10.098;2022-09-09T15:33:40;19.20;63.40
43808;DHT22;29438;50.664;10.098;2022-09-09T15:36:20;19.20;63.30
43808;DHT22;29438;50.664;10.098;2022-09-09T15:38:46;18.90;64.70
43808;DHT22;29438;50.664;10.098;2022-09-09T15:41:12;18.70;63.80
43808;DHT22;29438;50.664;10.098;2022-09-09T15:43:39;18.70;66.20
43808;DHT22;29438;50.664;10.098;2022-09-09T15:48:45;18.70;66.70
43808;DHT22;29438;50.664;10.098;2022-09-09T15:51:11;18.70;67.40
43808;DHT22;29438;50.664;10.098;2022-09-09T15:53:38;18.70;67.00
43808;DHT22;29438;50.664;10.098;2022-09-09T15:56:07;18.80;66.40
43808;DHT22;29438;50.664;10.098;2022-09-09T15:58:33;18.80;64.10
43808;DHT22;29438;50.664;10.098;2022-09-09T16:01:03;18.90;64.80
43808;DHT22;29438;50.664;10.098;2022-09-09T16:03:36;18.80;64.90
43808;DHT22;29438;50.664;10.098;2022-09-09T16:06:02;18.70;64.90
43808;DHT22;29438;50.664;10.098;2022-09-09T16:08:36;18.60;63.70
43808;DHT22;29438;50.664;10.098;2022-09-09T16:11:10;18.50;64.10
43808;DHT22;29438;50.664;10.098;2022-09-09T16:13:36;18.60;64.20
43808;DHT22;29438;50.664;10.098;2022-09-09T16:16:06;18.70;63.50
43808;DHT22;29438;50.664;10.098;2022-09-09T16:18:36;18.50;63.60
43808;DHT22;29438;50.664;10.098;2022-09-09T16:21:03;18.30;62.30
43808;DHT22;29438;50.664;10.098;2022-09-09T16:23:34;18.20;63.20
43808;DHT22;29438;50.664;10.098;2022-09-09T16:26:00;18.10;64.30
43808;DHT22;29438;50.664;10.098;2022-09-09T16:28:26;18.10;63.90
43808;DHT22;29438;50.664;10.098;2022-09-09T16:30:52;18.00;63.40
43808;DHT22;29438;50.664;10.098;2022-09-09T16:33:18;17.80;64.00
43808;DHT22;29438;50.664;10.098;2022-09-09T16:35:44;17.70;65.60
43808;DHT22;29438;50.664;10.098;2022-09-09T16:38:09;17.60;66.10
43808;DHT22;29438;50.664;10.098;2022-09-09T16:40:35;17.50;66.70
43808;DHT22;29438;50.664;10.098;2022-09-09T16:43:02;17.50;66.10
43808;DHT22;29438;50.664;10.098;2022-09-09T16:45:27;17.50;66.80
43808;DHT22;29438;50.664;10.098;2022-09-09T16:47:53;17.50;67.00
43808;DHT22;29438;50.664;10.098;2022-09-09T16:50:19;17.50;67.60
43808;DHT22;29438;50.664;10.098;2022-09-09T16:52:45;17.50;67.30
43808;DHT22;29438;50.664;10.098;2022-09-09T16:55:10;17.40;68.40
43808;DHT22;29438;50.664;10.098;2022-09-09T16:57:36;17.30;68.70
43808;DHT22;29438;50.664;10.098;2022-09-09T17:00:03;17.20;69.20
43808;DHT22;29438;50.664;10.098;2022-09-09T17:02:30;17.20;69.50
43808;DHT22;29438;50.664;10.098;2022-09-09T17:04:55;17.10;70.60
43808;DHT22;29438;50.664;10.098;2022-09-09T17:07:21;17.00;70.50
43808;DHT22;29438;50.664;10.098;2022-09-09T17:09:48;16.90;71.60
43808;DHT22;29438;50.664;10.098;2022-09-09T17:12:13;16.70;72.40
43808;DHT22;29438;50.664;10.098;2022-09-09T17:14:39;16.60;73.10
43808;DHT22;29438;50.664;10.098;2022-09-09T17:17:04;16.50;73.60
43808;DHT22;29438;50.664;10.098;2022-09-09T17:19:30;16.30;73.60
43808;DHT22;29438;50.664;10.098;2022-09-09T17:21:56;16.20;74.70
43808;DHT22;29438;50.664;10.098;2022-09-09T17:24:25;16.20;74.70
43808;DHT22;29438;50.664;10.098;2022-09-09T17:26:52;16.10;75.40
43808;DHT22;29438;50.664;10.098;2022-09-09T17:29:17;16.00;76.10
43808;DHT22;29438;50.664;10.098;2022-09-09T17:31:43;15.90;76.40
43808;DHT22;29438;50.664;10.098;2022-09-09T17:34:09;15.80;76.70
43808;DHT22;29438;50.664;10.098;2022-09-09T17:36:35;15.70;77.20
43808;DHT22;29438;50.664;10.098;2022-09-09T17:39:03;15.60;77.30